Aérodrome :
LOGIN :

S'inscrire | Disclaimer

   EN    FR    IT 

 










Légende :    VFR   VFR Marginal   IFR   IFR Intensif   IFR Très Intensif
Visi : 
Plafond : 
>= 8 km
>= 3000ft
5 à 8 km
1000 à 3000 ft
1500m à 5 km
500 à 1000 ft
800 à 1500m
200 à 500 ft
< 800m
< 200 ft
Symboles :   Orages  Brouillard  Fortes neiges  Fortes précipitations  Vent > 20 kt
SIGMETs :   Divers  Orages  Givrage  Turbulence  Onde Orograph.  Cendres Volcan.







- Altitude de l'aérodrome : 423 ft
- Code IATA : PIS
- Voir les cartes d'approche


LFBI - Poitiers

DERNIER METAR :
  • 210530Z AUTO 25003KT 9999 BKN032 BKN044 BKN072 14/13 Q1015 NOSIG

METARs EXPIRÉS :
  • 210500Z AUTO 28003KT 250V310 9999 BKN034 OVC074 14/13 Q1015 NOSIG
  • 210430Z AUTO 30005KT CAVOK 14/13 Q1015 NOSIG
  • 210400Z AUTO 27004KT CAVOK 14/12 Q1015 NOSIG
  • 210330Z AUTO 27004KT CAVOK 14/13 Q1015 NOSIG
  • 210300Z AUTO 26003KT CAVOK 14/12 Q1015 NOSIG

TAF TAF LFBI
Valide du 21 à 06h jusqu'au 22 à 06h UTC


210500Z 2106/2206 VRB02KT CAVOK
BECMG 2107/2109 24005KT BKN040
BECMG 2112/2114 CAVOK
Pas de NOTAMs connus pour ce terrain.



MET'MAP, la Météo Aéronautique d'un coup d'oeil ! - Copyright ORBIFLY Décembre 2007 - Disclaimer

ORBIFLY MET'MAP TEAM :

Programmation & Développement : Alexandra Zaïnal
Conception & Développement : Baudouin d'Aumeries
Co-Programmation & Développement : Marc-Olivier Méhu
Soutien technique & logistique : Manuel Goepfert

Contact : metmap@orbifly.com




SOURCES & CREDITS :

   NOAA